sensor_id;sensor_type;location;lat;lon;timestamp;pressure;altitude;pressure_sealevel;temperature;humidity
45872;BME280;32333;55.844;-3.210;2022-09-30T00:02:10;98659.65;;;9.04;100.00
45872;BME280;32333;55.844;-3.210;2022-09-30T00:04:38;98661.27;;;9.75;100.00
45872;BME280;32333;55.844;-3.210;2022-09-30T00:07:13;98661.06;;;9.40;100.00
45872;BME280;32333;55.844;-3.210;2022-09-30T00:09:45;98660.29;;;9.46;100.00
45872;BME280;32333;55.844;-3.210;2022-09-30T00:14:37;98664.92;;;9.99;100.00
45872;BME280;32333;55.844;-3.210;2022-09-30T00:17:05;98659.54;;;9.15;100.00
45872;BME280;32333;55.844;-3.210;2022-09-30T00:19:32;98655.19;;;7.38;100.00
45872;BME280;32333;55.844;-3.210;2022-09-30T00:22:01;98651.43;;;8.82;100.00
45872;BME280;32333;55.844;-3.210;2022-09-30T00:24:30;98648.89;;;9.54;100.00
45872;BME280;32333;55.844;-3.210;2022-09-30T00:26:59;98648.12;;;10.46;100.00
45872;BME280;32333;55.844;-3.210;2022-09-30T00:29:26;98645.96;;;11.17;100.00
45872;BME280;32333;55.844;-3.210;2022-09-30T00:31:54;98643.57;;;9.60;100.00
45872;BME280;32333;55.844;-3.210;2022-09-30T00:34:23;98640.60;;;10.16;100.00
45872;BME280;32333;55.844;-3.210;2022-09-30T00:36:52;98646.46;;;9.34;100.00
45872;BME280;32333;55.844;-3.210;2022-09-30T00:39:27;98640.60;;;8.90;100.00
45872;BME280;32333;55.844;-3.210;2022-09-30T00:41:58;98634.56;;;9.90;100.00
45872;BME280;32333;55.844;-3.210;2022-09-30T00:44:54;98635.49;;;9.53;100.00
45872;BME280;32333;55.844;-3.210;2022-09-30T00:47:31;98632.91;;;9.97;100.00
45872;BME280;32333;55.844;-3.210;2022-09-30T00:50:02;98630.61;;;9.04;100.00
45872;BME280;32333;55.844;-3.210;2022-09-30T00:52:31;98624.88;;;9.10;100.00
45872;BME280;32333;55.844;-3.210;2022-09-30T00:55:01;98623.84;;;9.58;100.00
45872;BME280;32333;55.844;-3.210;2022-09-30T00:57:31;98623.24;;;9.27;100.00
45872;BME280;32333;55.844;-3.210;2022-09-30T00:59:59;98619.20;;;9.19;100.00
45872;BME280;32333;55.844;-3.210;2022-09-30T01:02:45;98618.19;;;8.75;100.00
45872;BME280;32333;55.844;-3.210;2022-09-30T01:05:14;98612.45;;;8.59;100.00
45872;BME280;32333;55.844;-3.210;2022-09-30T01:07:57;98606.59;;;9.92;100.00
45872;BME280;32333;55.844;-3.210;2022-09-30T01:10:30;98605.23;;;8.84;100.00
45872;BME280;32333;55.844;-3.210;2022-09-30T01:14:37;98594.61;;;9.09;100.00
45872;BME280;32333;55.844;-3.210;2022-09-30T01:17:10;98591.90;;;9.45;100.00
45872;BME280;32333;55.844;-3.210;2022-09-30T01:20:03;98588.13;;;9.81;100.00
45872;BME280;32333;55.844;-3.210;2022-09-30T01:22:44;98583.49;;;9.22;100.00
45872;BME280;32333;55.844;-3.210;2022-09-30T01:25:56;98584.62;;;9.64;100.00
45872;BME280;32333;55.844;-3.210;2022-09-30T01:28:42;98580.59;;;10.02;100.00
45872;BME280;32333;55.844;-3.210;2022-09-30T01:31:26;98572.89;;;9.55;100.00
45872;BME280;32333;55.844;-3.210;2022-09-30T01:34:01;98568.76;;;9.13;100.00
45872;BME280;32333;55.844;-3.210;2022-09-30T01:36:43;98565.11;;;9.77;100.00
45872;BME280;32333;55.844;-3.210;2022-09-30T01:39:32;98558.93;;;10.40;100.00
45872;BME280;32333;55.844;-3.210;2022-09-30T01:44:40;98549.05;;;9.68;100.00
45872;BME280;32333;55.844;-3.210;2022-09-30T01:47:14;98539.07;;;9.98;100.00
45872;BME280;32333;55.844;-3.210;2022-09-30T01:49:47;98531.43;;;9.40;100.00
45872;BME280;32333;55.844;-3.210;2022-09-30T01:52:21;98518.36;;;10.20;100.00
45872;BME280;32333;55.844;-3.210;2022-09-30T01:54:54;98514.64;;;9.17;100.00
45872;BME280;32333;55.844;-3.210;2022-09-30T01:57:29;98504.97;;;9.87;100.00
45872;BME280;32333;55.844;-3.210;2022-09-30T02:00:01;98496.24;;;9.89;100.00
45872;BME280;32333;55.844;-3.210;2022-09-30T02:02:31;98492.79;;;9.67;100.00
45872;BME280;32333;55.844;-3.210;2022-09-30T02:05:04;98485.89;;;10.22;100.00
45872;BME280;32333;55.844;-3.210;2022-09-30T02:07:37;98481.73;;;9.90;100.00
45872;BME280;32333;55.844;-3.210;2022-09-30T02:10:13;98469.82;;;10.36;100.00
45872;BME280;32333;55.844;-3.210;2022-09-30T02:14:39;98462.52;;;9.74;100.00
45872;BME280;32333;55.844;-3.210;2022-09-30T02:17:13;98454.56;;;10.83;100.00
45872;BME280;32333;55.844;-3.210;2022-09-30T02:19:48;98448.22;;;10.55;100.00
45872;BME280;32333;55.844;-3.210;2022-09-30T02:22:21;98436.08;;;10.67;100.00
45872;BME280;32333;55.844;-3.210;2022-09-30T02:24:54;98433.74;;;9.68;100.00
45872;BME280;32333;55.844;-3.210;2022-09-30T02:27:28;98425.91;;;9.90;100.00
45872;BME280;32333;55.844;-3.210;2022-09-30T02:30:44;98416.10;;;10.65;100.00
45872;BME280;32333;55.844;-3.210;2022-09-30T02:33:19;98406.70;;;10.66;100.00
45872;BME280;32333;55.844;-3.210;2022-09-30T02:35:57;98410.54;;;10.45;100.00
45872;BME280;32333;55.844;-3.210;2022-09-30T02:38:31;98403.15;;;10.51;100.00
45872;BME280;32333;55.844;-3.210;2022-09-30T02:41:11;98398.59;;;10.44;100.00
45872;BME280;32333;55.844;-3.210;2022-09-30T02:44:36;98389.46;;;11.30;100.00
45872;BME280;32333;55.844;-3.210;2022-09-30T02:47:11;98383.96;;;11.20;100.00
45872;BME280;32333;55.844;-3.210;2022-09-30T02:49:46;98379.76;;;11.74;100.00
45872;BME280;32333;55.844;-3.210;2022-09-30T02:52:22;98369.57;;;10.94;100.00
45872;BME280;32333;55.844;-3.210;2022-09-30T02:55:02;98367.41;;;12.12;100.00
45872;BME280;32333;55.844;-3.210;2022-09-30T02:57:41;98361.46;;;10.92;100.00
45872;BME280;32333;55.844;-3.210;2022-09-30T03:00:11;98358.30;;;11.46;100.00
45872;BME280;32333;55.844;-3.210;2022-09-30T03:02:39;98351.33;;;10.81;100.00
45872;BME280;32333;55.844;-3.210;2022-09-30T03:05:08;98340.61;;;10.95;100.00
45872;BME280;32333;55.844;-3.210;2022-09-30T03:07:37;98342.97;;;11.62;100.00
45872;BME280;32333;55.844;-3.210;2022-09-30T03:10:12;98335.68;;;9.93;100.00
45872;BME280;32333;55.844;-3.210;2022-09-30T03:14:47;98318.67;;;9.63;100.00
45872;BME280;32333;55.844;-3.210;2022-09-30T03:17:33;98309.74;;;9.26;100.00
45872;BME280;32333;55.844;-3.210;2022-09-30T03:20:20;98296.39;;;8.97;100.00
45872;BME280;32333;55.844;-3.210;2022-09-30T03:23:08;98295.85;;;9.61;100.00
45872;BME280;32333;55.844;-3.210;2022-09-30T03:25:46;98285.81;;;9.78;100.00
45872;BME280;32333;55.844;-3.210;2022-09-30T03:28:24;98274.99;;;10.11;100.00
45872;BME280;32333;55.844;-3.210;2022-09-30T03:31:00;98273.85;;;9.49;100.00
45872;BME280;32333;55.844;-3.210;2022-09-30T03:33:38;98260.53;;;10.34;100.00
45872;BME280;32333;55.844;-3.210;2022-09-30T03:36:13;98251.86;;;11.00;100.00
45872;BME280;32333;55.844;-3.210;2022-09-30T03:38:48;98250.48;;;10.94;100.00
45872;BME280;32333;55.844;-3.210;2022-09-30T03:41:24;98238.58;;;9.83;100.00
45872;BME280;32333;55.844;-3.210;2022-09-30T03:44:40;98232.47;;;10.41;100.00
45872;BME280;32333;55.844;-3.210;2022-09-30T03:47:54;98219.84;;;10.64;100.00
45872;BME280;32333;55.844;-3.210;2022-09-30T03:50:25;98209.36;;;10.56;100.00
45872;BME280;32333;55.844;-3.210;2022-09-30T03:55:12;98204.43;;;9.79;100.00
45872;BME280;32333;55.844;-3.210;2022-09-30T03:57:45;98196.09;;;9.63;100.00
45872;BME280;32333;55.844;-3.210;2022-09-30T04:00:13;98186.55;;;9.31;100.00
45872;BME280;32333;55.844;-3.210;2022-09-30T04:02:42;98176.40;;;9.51;100.00
45872;BME280;32333;55.844;-3.210;2022-09-30T04:05:11;98162.38;;;9.63;100.00
45872;BME280;32333;55.844;-3.210;2022-09-30T04:07:39;98156.76;;;9.43;100.00
45872;BME280;32333;55.844;-3.210;2022-09-30T04:10:08;98148.15;;;8.70;100.00
45872;BME280;32333;55.844;-3.210;2022-09-30T04:14:36;98142.57;;;9.17;100.00
45872;BME280;32333;55.844;-3.210;2022-09-30T04:17:04;98140.37;;;8.79;100.00
45872;BME280;32333;55.844;-3.210;2022-09-30T04:19:32;98131.55;;;8.08;100.00
45872;BME280;32333;55.844;-3.210;2022-09-30T04:22:00;98118.49;;;8.49;100.00
45872;BME280;32333;55.844;-3.210;2022-09-30T04:24:29;98117.79;;;8.61;100.00
45872;BME280;32333;55.844;-3.210;2022-09-30T04:26:59;98109.75;;;8.37;100.00
45872;BME280;32333;55.844;-3.210;2022-09-30T04:29:27;98106.92;;;8.53;100.00
45872;BME280;32333;55.844;-3.210;2022-09-30T04:31:54;98093.60;;;8.33;100.00
45872;BME280;32333;55.844;-3.210;2022-09-30T04:34:23;98092.44;;;8.93;100.00
45872;BME280;32333;55.844;-3.210;2022-09-30T04:37:12;98080.44;;;8.10;100.00
45872;BME280;32333;55.844;-3.210;2022-09-30T04:39:57;98075.25;;;8.79;100.00
45872;BME280;32333;55.844;-3.210;2022-09-30T04:44:36;98061.17;;;7.73;100.00
45872;BME280;32333;55.844;-3.210;2022-09-30T04:47:04;98051.98;;;8.71;100.00
45872;BME280;32333;55.844;-3.210;2022-09-30T04:49:32;98045.78;;;9.02;100.00
45872;BME280;32333;55.844;-3.210;2022-09-30T04:51:59;98043.39;;;9.34;100.00
45872;BME280;32333;55.844;-3.210;2022-09-30T04:54:28;98028.73;;;9.06;100.00
45872;BME280;32333;55.844;-3.210;2022-09-30T04:57:02;98024.60;;;8.92;100.00
45872;BME280;32333;55.844;-3.210;2022-09-30T04:59:30;98020.01;;;8.63;100.00
45872;BME280;32333;55.844;-3.210;2022-09-30T05:01:58;98011.60;;;9.66;100.00
45872;BME280;32333;55.844;-3.210;2022-09-30T05:04:26;98005.33;;;9.77;100.00
45872;BME280;32333;55.844;-3.210;2022-09-30T05:06:54;97990.38;;;8.54;100.00
45872;BME280;32333;55.844;-3.210;2022-09-30T05:09:23;97991.59;;;9.43;100.00
45872;BME280;32333;55.844;-3.210;2022-09-30T05:11:50;97982.70;;;8.87;100.00
45872;BME280;32333;55.844;-3.210;2022-09-30T05:14:36;97977.81;;;9.56;100.00
45872;BME280;32333;55.844;-3.210;2022-09-30T05:17:05;97965.01;;;9.82;100.00
45872;BME280;32333;55.844;-3.210;2022-09-30T05:19:34;97954.44;;;9.62;100.00
45872;BME280;32333;55.844;-3.210;2022-09-30T05:22:05;97948.59;;;9.74;100.00
45872;BME280;32333;55.844;-3.210;2022-09-30T05:24:32;97945.97;;;9.41;100.00
45872;BME280;32333;55.844;-3.210;2022-09-30T05:27:00;97926.11;;;10.50;100.00
45872;BME280;32333;55.844;-3.210;2022-09-30T05:29:28;97914.81;;;9.85;100.00
45872;BME280;32333;55.844;-3.210;2022-09-30T05:31:56;97914.28;;;9.65;100.00
45872;BME280;32333;55.844;-3.210;2022-09-30T05:34:23;97907.74;;;8.96;100.00
45872;BME280;32333;55.844;-3.210;2022-09-30T05:36:52;97895.52;;;9.87;100.00
45872;BME280;32333;55.844;-3.210;2022-09-30T05:39:22;97887.88;;;9.98;100.00
45872;BME280;32333;55.844;-3.210;2022-09-30T05:41:50;97886.81;;;9.64;100.00
45872;BME280;32333;55.844;-3.210;2022-09-30T05:44:35;97880.29;;;9.54;100.00
45872;BME280;32333;55.844;-3.210;2022-09-30T05:47:04;97878.28;;;9.65;100.00
45872;BME280;32333;55.844;-3.210;2022-09-30T05:49:31;97882.13;;;9.25;100.00
45872;BME280;32333;55.844;-3.210;2022-09-30T05:52:30;97871.23;;;10.12;100.00
45872;BME280;32333;55.844;-3.210;2022-09-30T05:54:57;97857.70;;;9.69;100.00
45872;BME280;32333;55.844;-3.210;2022-09-30T05:57:27;97853.42;;;9.90;100.00
45872;BME280;32333;55.844;-3.210;2022-09-30T05:59:54;97851.40;;;9.93;100.00
45872;BME280;32333;55.844;-3.210;2022-09-30T06:02:22;97848.75;;;10.33;100.00
45872;BME280;32333;55.844;-3.210;2022-09-30T06:04:51;97843.43;;;9.76;100.00
45872;BME280;32333;55.844;-3.210;2022-09-30T06:07:19;97829.81;;;9.25;100.00
45872;BME280;32333;55.844;-3.210;2022-09-30T06:09:46;97818.72;;;10.06;100.00
45872;BME280;32333;55.844;-3.210;2022-09-30T06:14:35;97794.73;;;9.46;100.00
45872;BME280;32333;55.844;-3.210;2022-09-30T06:17:04;97785.42;;;9.50;100.00
45872;BME280;32333;55.844;-3.210;2022-09-30T06:19:31;97773.55;;;8.87;100.00
45872;BME280;32333;55.844;-3.210;2022-09-30T06:22:01;97760.87;;;8.93;100.00
45872;BME280;32333;55.844;-3.210;2022-09-30T06:24:30;97757.76;;;9.19;100.00
45872;BME280;32333;55.844;-3.210;2022-09-30T06:26:58;97757.63;;;9.60;100.00
45872;BME280;32333;55.844;-3.210;2022-09-30T06:30:08;97747.06;;;9.89;100.00
45872;BME280;32333;55.844;-3.210;2022-09-30T06:32:36;97743.78;;;9.60;100.00
45872;BME280;32333;55.844;-3.210;2022-09-30T06:35:04;97717.68;;;9.93;100.00
45872;BME280;32333;55.844;-3.210;2022-09-30T06:37:32;97708.93;;;10.01;100.00
45872;BME280;32333;55.844;-3.210;2022-09-30T06:40:01;97696.06;;;9.43;100.00
45872;BME280;32333;55.844;-3.210;2022-09-30T06:44:37;97702.75;;;8.93;100.00
45872;BME280;32333;55.844;-3.210;2022-09-30T06:47:11;97681.50;;;8.69;100.00
45872;BME280;32333;55.844;-3.210;2022-09-30T06:49:43;97672.67;;;9.07;100.00
45872;BME280;32333;55.844;-3.210;2022-09-30T06:52:12;97664.79;;;9.55;100.00
45872;BME280;32333;55.844;-3.210;2022-09-30T06:54:40;97649.63;;;9.92;100.00
45872;BME280;32333;55.844;-3.210;2022-09-30T06:57:09;97641.28;;;9.56;100.00
45872;BME280;32333;55.844;-3.210;2022-09-30T06:59:37;97636.80;;;9.17;100.00
45872;BME280;32333;55.844;-3.210;2022-09-30T07:02:08;97638.24;;;9.93;100.00
45872;BME280;32333;55.844;-3.210;2022-09-30T07:04:37;97630.65;;;9.50;100.00
45872;BME280;32333;55.844;-3.210;2022-09-30T07:07:06;97614.90;;;9.67;100.00
45872;BME280;32333;55.844;-3.210;2022-09-30T07:09:33;97600.99;;;9.44;100.00
45872;BME280;32333;55.844;-3.210;2022-09-30T07:12:01;97599.43;;;9.03;100.00
45872;BME280;32333;55.844;-3.210;2022-09-30T07:14:37;97600.79;;;9.56;100.00
45872;BME280;32333;55.844;-3.210;2022-09-30T07:17:05;97593.11;;;10.33;100.00
45872;BME280;32333;55.844;-3.210;2022-09-30T07:19:34;97589.82;;;10.26;100.00
45872;BME280;32333;55.844;-3.210;2022-09-30T07:22:01;97567.75;;;10.70;100.00
45872;BME280;32333;55.844;-3.210;2022-09-30T07:24:30;97556.21;;;10.37;100.00
45872;BME280;32333;55.844;-3.210;2022-09-30T07:26:59;97550.18;;;9.83;100.00
45872;BME280;32333;55.844;-3.210;2022-09-30T07:29:27;97552.91;;;9.62;100.00
45872;BME280;32333;55.844;-3.210;2022-09-30T07:31:55;97539.11;;;9.92;100.00
45872;BME280;32333;55.844;-3.210;2022-09-30T07:34:22;97535.19;;;10.07;100.00
45872;BME280;32333;55.844;-3.210;2022-09-30T07:36:50;97523.01;;;9.94;100.00
45872;BME280;32333;55.844;-3.210;2022-09-30T07:39:18;97507.70;;;10.07;100.00
45872;BME280;32333;55.844;-3.210;2022-09-30T07:41:46;97496.80;;;9.57;100.00
45872;BME280;32333;55.844;-3.210;2022-09-30T07:44:35;97488.45;;;9.45;100.00
45872;BME280;32333;55.844;-3.210;2022-09-30T07:47:02;97483.97;;;10.27;100.00
45872;BME280;32333;55.844;-3.210;2022-09-30T07:49:30;97468.37;;;9.96;100.00
45872;BME280;32333;55.844;-3.210;2022-09-30T07:51:57;97453.04;;;10.01;100.00
45872;BME280;32333;55.844;-3.210;2022-09-30T07:54:29;97444.96;;;10.00;100.00
45872;BME280;32333;55.844;-3.210;2022-09-30T07:57:00;97430.31;;;10.34;100.00
45872;BME280;32333;55.844;-3.210;2022-09-30T07:59:29;97424.78;;;9.63;100.00
45872;BME280;32333;55.844;-3.210;2022-09-30T08:01:58;97416.79;;;10.33;100.00
45872;BME280;32333;55.844;-3.210;2022-09-30T08:04:27;97402.76;;;10.71;100.00
45872;BME280;32333;55.844;-3.210;2022-09-30T08:06:57;97378.39;;;10.16;100.00
45872;BME280;32333;55.844;-3.210;2022-09-30T08:09:26;97368.79;;;9.87;100.00
45872;BME280;32333;55.844;-3.210;2022-09-30T08:11:55;97340.81;;;10.10;100.00
45872;BME280;32333;55.844;-3.210;2022-09-30T08:14:35;97351.84;;;10.73;100.00
45872;BME280;32333;55.844;-3.210;2022-09-30T08:17:04;97321.35;;;10.07;100.00
45872;BME280;32333;55.844;-3.210;2022-09-30T08:19:32;97316.18;;;10.03;100.00
45872;BME280;32333;55.844;-3.210;2022-09-30T08:21:59;97304.68;;;10.37;100.00
45872;BME280;32333;55.844;-3.210;2022-09-30T08:24:26;97295.41;;;10.33;100.00
45872;BME280;32333;55.844;-3.210;2022-09-30T08:26:55;97279.89;;;9.86;100.00
45872;BME280;32333;55.844;-3.210;2022-09-30T08:29:23;97267.18;;;10.14;100.00
45872;BME280;32333;55.844;-3.210;2022-09-30T08:31:50;97259.42;;;9.78;100.00
45872;BME280;32333;55.844;-3.210;2022-09-30T08:34:18;97252.65;;;10.10;100.00
45872;BME280;32333;55.844;-3.210;2022-09-30T08:36:47;97253.58;;;10.32;100.00
45872;BME280;32333;55.844;-3.210;2022-09-30T08:39:14;97236.40;;;10.23;100.00
45872;BME280;32333;55.844;-3.210;2022-09-30T08:41:54;97240.67;;;9.50;100.00
45872;BME280;32333;55.844;-3.210;2022-09-30T08:44:41;97215.93;;;10.38;100.00
45872;BME280;32333;55.844;-3.210;2022-09-30T08:47:23;97233.30;;;10.30;100.00
45872;BME280;32333;55.844;-3.210;2022-09-30T08:50:02;97218.37;;;10.05;100.00
45872;BME280;32333;55.844;-3.210;2022-09-30T08:52:34;97210.08;;;10.19;100.00
45872;BME280;32333;55.844;-3.210;2022-09-30T08:55:03;97210.94;;;10.19;100.00
45872;BME280;32333;55.844;-3.210;2022-09-30T08:57:35;97194.44;;;9.64;100.00
45872;BME280;32333;55.844;-3.210;2022-09-30T09:00:07;97193.78;;;10.01;100.00
45872;BME280;32333;55.844;-3.210;2022-09-30T09:02:42;97172.20;;;10.12;100.00
45872;BME280;32333;55.844;-3.210;2022-09-30T09:05:19;97183.33;;;9.52;100.00
45872;BME280;32333;55.844;-3.210;2022-09-30T09:07:57;97174.17;;;9.46;100.00
45872;BME280;32333;55.844;-3.210;2022-09-30T09:10:32;97166.90;;;9.86;100.00
45872;BME280;32333;55.844;-3.210;2022-09-30T09:14:40;97156.37;;;9.84;100.00
45872;BME280;32333;55.844;-3.210;2022-09-30T09:17:22;97142.58;;;9.36;100.00
45872;BME280;32333;55.844;-3.210;2022-09-30T09:19:58;97133.74;;;8.65;100.00
45872;BME280;32333;55.844;-3.210;2022-09-30T09:22:28;97116.67;;;9.22;100.00
45872;BME280;32333;55.844;-3.210;2022-09-30T09:24:57;97108.99;;;8.53;100.00
45872;BME280;32333;55.844;-3.210;2022-09-30T09:27:36;97100.73;;;8.93;100.00
45872;BME280;32333;55.844;-3.210;2022-09-30T09:30:09;97085.45;;;8.45;100.00
45872;BME280;32333;55.844;-3.210;2022-09-30T09:32:37;97083.39;;;8.90;100.00
45872;BME280;32333;55.844;-3.210;2022-09-30T09:35:13;97087.30;;;9.26;100.00
45872;BME280;32333;55.844;-3.210;2022-09-30T09:37:49;97085.06;;;8.75;100.00
45872;BME280;32333;55.844;-3.210;2022-09-30T09:40:29;97081.96;;;9.00;100.00
45872;BME280;32333;55.844;-3.210;2022-09-30T09:44:38;97079.51;;;9.49;100.00
45872;BME280;32333;55.844;-3.210;2022-09-30T09:47:11;97068.72;;;8.98;100.00
45872;BME280;32333;55.844;-3.210;2022-09-30T09:49:40;97052.93;;;9.26;100.00
45872;BME280;32333;55.844;-3.210;2022-09-30T09:52:26;97056.03;;;9.13;100.00
45872;BME280;32333;55.844;-3.210;2022-09-30T09:54:56;97032.35;;;8.53;100.00
45872;BME280;32333;55.844;-3.210;2022-09-30T09:57:25;97025.76;;;8.71;100.00
45872;BME280;32333;55.844;-3.210;2022-09-30T09:59:55;97000.96;;;8.97;100.00
45872;BME280;32333;55.844;-3.210;2022-09-30T10:02:25;96988.15;;;8.99;100.00
45872;BME280;32333;55.844;-3.210;2022-09-30T10:04:54;96978.28;;;8.87;100.00
45872;BME280;32333;55.844;-3.210;2022-09-30T10:07:21;96975.14;;;8.63;100.00
45872;BME280;32333;55.844;-3.210;2022-09-30T10:10:04;96965.90;;;9.25;100.00
45872;BME280;32333;55.844;-3.210;2022-09-30T10:14:38;96946.79;;;9.05;100.00
45872;BME280;32333;55.844;-3.210;2022-09-30T10:17:17;96929.56;;;9.41;100.00
45872;BME280;32333;55.844;-3.210;2022-09-30T10:19:49;96912.59;;;8.82;100.00
45872;BME280;32333;55.844;-3.210;2022-09-30T10:22:18;96904.16;;;8.84;100.00
45872;BME280;32333;55.844;-3.210;2022-09-30T10:24:47;96891.20;;;8.30;100.00
45872;BME280;32333;55.844;-3.210;2022-09-30T10:27:26;96888.38;;;9.11;100.00
45872;BME280;32333;55.844;-3.210;2022-09-30T10:29:55;96889.12;;;8.71;100.00
45872;BME280;32333;55.844;-3.210;2022-09-30T10:32:23;96893.02;;;8.88;100.00
45872;BME280;32333;55.844;-3.210;2022-09-30T10:35:03;96903.00;;;8.63;100.00
45872;BME280;32333;55.844;-3.210;2022-09-30T10:37:32;96881.76;;;8.90;100.00
45872;BME280;32333;55.844;-3.210;2022-09-30T10:40:02;96882.14;;;8.87;100.00
45872;BME280;32333;55.844;-3.210;2022-09-30T10:44:41;96846.43;;;8.80;100.00
45872;BME280;32333;55.844;-3.210;2022-09-30T10:47:14;96852.43;;;8.98;100.00
45872;BME280;32333;55.844;-3.210;2022-09-30T10:49:47;96841.67;;;8.73;100.00
45872;BME280;32333;55.844;-3.210;2022-09-30T10:52:18;96810.46;;;8.96;100.00
45872;BME280;32333;55.844;-3.210;2022-09-30T10:54:49;96825.49;;;8.89;100.00
45872;BME280;32333;55.844;-3.210;2022-09-30T10:57:20;96813.61;;;8.74;100.00
45872;BME280;32333;55.844;-3.210;2022-09-30T10:59:49;96819.99;;;9.01;100.00
45872;BME280;32333;55.844;-3.210;2022-09-30T11:02:24;96802.96;;;9.01;100.00
45872;BME280;32333;55.844;-3.210;2022-09-30T11:05:01;96800.66;;;8.93;100.00
45872;BME280;32333;55.844;-3.210;2022-09-30T11:07:38;96809.47;;;8.91;100.00
45872;BME280;32333;55.844;-3.210;2022-09-30T11:10:19;96817.35;;;8.99;100.00
45872;BME280;32333;55.844;-3.210;2022-09-30T11:14:41;96822.32;;;9.33;100.00
45872;BME280;32333;55.844;-3.210;2022-09-30T11:17:22;96801.11;;;9.43;100.00
45872;BME280;32333;55.844;-3.210;2022-09-30T11:20:02;96802.20;;;9.36;100.00
45872;BME280;32333;55.844;-3.210;2022-09-30T11:22:38;96756.91;;;9.33;100.00
45872;BME280;32333;55.844;-3.210;2022-09-30T11:25:12;96740.01;;;9.45;100.00
45872;BME280;32333;55.844;-3.210;2022-09-30T11:27:53;96728.10;;;9.46;100.00
45872;BME280;32333;55.844;-3.210;2022-09-30T11:30:29;96734.50;;;9.15;100.00
45872;BME280;32333;55.844;-3.210;2022-09-30T11:33:16;96692.48;;;9.09;100.00
45872;BME280;32333;55.844;-3.210;2022-09-30T11:35:54;96656.11;;;9.27;100.00
45872;BME280;32333;55.844;-3.210;2022-09-30T11:38:40;96658.41;;;9.08;100.00
45872;BME280;32333;55.844;-3.210;2022-09-30T11:41:17;96662.45;;;9.47;100.00
45872;BME280;32333;55.844;-3.210;2022-09-30T11:44:37;96658.21;;;9.58;100.00
45872;BME280;32333;55.844;-3.210;2022-09-30T11:47:19;96628.42;;;9.60;100.00
45872;BME280;32333;55.844;-3.210;2022-09-30T11:50:18;96612.34;;;9.76;100.00
45872;BME280;32333;55.844;-3.210;2022-09-30T11:52:55;96598.52;;;8.92;100.00
45872;BME280;32333;55.844;-3.210;2022-09-30T11:55:36;96600.04;;;8.78;100.00
45872;BME280;32333;55.844;-3.210;2022-09-30T11:58:08;96587.28;;;9.03;100.00
45872;BME280;32333;55.844;-3.210;2022-09-30T12:00:39;96574.57;;;9.59;100.00
45872;BME280;32333;55.844;-3.210;2022-09-30T12:03:11;96597.28;;;9.27;100.00
45872;BME280;32333;55.844;-3.210;2022-09-30T12:05:42;96611.93;;;9.27;100.00
45872;BME280;32333;55.844;-3.210;2022-09-30T12:08:14;96607.75;;;8.89;100.00
45872;BME280;32333;55.844;-3.210;2022-09-30T12:10:47;96616.76;;;9.44;100.00
45872;BME280;32333;55.844;-3.210;2022-09-30T12:14:41;96609.50;;;9.42;100.00
45872;BME280;32333;55.844;-3.210;2022-09-30T12:17:17;96606.72;;;8.95;100.00
45872;BME280;32333;55.844;-3.210;2022-09-30T12:19:48;96609.01;;;9.46;100.00
45872;BME280;32333;55.844;-3.210;2022-09-30T12:22:19;96604.01;;;9.34;100.00
45872;BME280;32333;55.844;-3.210;2022-09-30T12:24:49;96585.87;;;9.31;100.00
45872;BME280;32333;55.844;-3.210;2022-09-30T12:27:20;96582.99;;;9.34;100.00
45872;BME280;32333;55.844;-3.210;2022-09-30T12:29:56;96567.94;;;9.14;100.00
45872;BME280;32333;55.844;-3.210;2022-09-30T12:32:50;96567.51;;;9.40;100.00
45872;BME280;32333;55.844;-3.210;2022-09-30T12:35:38;96566.33;;;9.08;100.00
45872;BME280;32333;55.844;-3.210;2022-09-30T12:38:23;96572.49;;;9.26;100.00
45872;BME280;32333;55.844;-3.210;2022-09-30T12:41:02;96585.68;;;9.45;100.00
45872;BME280;32333;55.844;-3.210;2022-09-30T12:44:58;96585.23;;;9.75;100.00
45872;BME280;32333;55.844;-3.210;2022-09-30T12:47:36;96587.22;;;9.58;100.00
45872;BME280;32333;55.844;-3.210;2022-09-30T12:50:07;96576.35;;;10.09;100.00
45872;BME280;32333;55.844;-3.210;2022-09-30T12:52:35;96551.12;;;9.59;100.00
45872;BME280;32333;55.844;-3.210;2022-09-30T12:55:06;96553.51;;;9.74;100.00
45872;BME280;32333;55.844;-3.210;2022-09-30T12:57:39;96562.34;;;9.52;100.00
45872;BME280;32333;55.844;-3.210;2022-09-30T13:00:15;96583.84;;;9.47;100.00
45872;BME280;32333;55.844;-3.210;2022-09-30T13:02:47;96556.07;;;9.92;100.00
45872;BME280;32333;55.844;-3.210;2022-09-30T13:06:02;96554.06;;;10.73;100.00
45872;BME280;32333;55.844;-3.210;2022-09-30T13:08:46;96546.83;;;10.14;100.00
45872;BME280;32333;55.844;-3.210;2022-09-30T13:11:32;96556.18;;;9.48;100.00
45872;BME280;32333;55.844;-3.210;2022-09-30T13:14:36;96554.69;;;9.78;100.00
45872;BME280;32333;55.844;-3.210;2022-09-30T13:17:24;96544.19;;;9.74;100.00
45872;BME280;32333;55.844;-3.210;2022-09-30T13:19:54;96532.47;;;10.35;100.00
45872;BME280;32333;55.844;-3.210;2022-09-30T13:24:07;96528.95;;;10.89;100.00
45872;BME280;32333;55.844;-3.210;2022-09-30T13:26:40;96530.88;;;11.03;100.00
45872;BME280;32333;55.844;-3.210;2022-09-30T13:29:32;96532.28;;;11.74;100.00
45872;BME280;32333;55.844;-3.210;2022-09-30T13:32:03;96554.68;;;11.01;100.00
45872;BME280;32333;55.844;-3.210;2022-09-30T13:34:33;96547.53;;;11.21;100.00
45872;BME280;32333;55.844;-3.210;2022-09-30T13:38:13;96566.61;;;10.66;100.00
45872;BME280;32333;55.844;-3.210;2022-09-30T13:40:45;96567.74;;;11.23;100.00
45872;BME280;32333;55.844;-3.210;2022-09-30T13:44:49;96570.94;;;11.70;100.00
45872;BME280;32333;55.844;-3.210;2022-09-30T13:47:28;96573.06;;;11.80;100.00
45872;BME280;32333;55.844;-3.210;2022-09-30T13:50:01;96580.02;;;11.15;100.00
45872;BME280;32333;55.844;-3.210;2022-09-30T13:52:34;96585.49;;;11.83;100.00
45872;BME280;32333;55.844;-3.210;2022-09-30T13:55:07;96586.94;;;11.29;100.00
45872;BME280;32333;55.844;-3.210;2022-09-30T13:57:43;96587.17;;;11.69;100.00
45872;BME280;32333;55.844;-3.210;2022-09-30T14:00:17;96589.87;;;10.96;100.00
45872;BME280;32333;55.844;-3.210;2022-09-30T14:03:14;96597.06;;;11.56;100.00